Time;durP1;ratioP1;P1;durP2;ratioP2;P2;SDS_P1;SDS_P2;PMS_P1;PMS_P2;Temp;Humidity;BMP_temperature;BMP_pressure;BME280_temperature;BME280_humidity;BME280_pressure;Samples;Min_cycle;Max_cycle;Signal;HPM_P1;HPM_P2
2021/10/06 02:22:34;;;;;;;14.50;13.90;;;11.40;99.90;;;;;;5977476;23;20438;-79
2021/10/06 02:25:01;;;;;;;14.67;13.73;;;11.40;99.90;;;;;;4982518;28;20493;-79
2021/10/06 02:27:28;;;;;;;16.27;14.63;;;11.40;99.90;;;;;;4972421;28;20472;-75
2021/10/06 02:29:54;;;;;;;13.70;13.20;;;11.50;99.90;;;;;;4976696;28;20478;-76
2021/10/06 02:32:21;;;;;;;13.93;13.30;;;11.50;99.90;;;;;;4977352;28;20459;-77
2021/10/06 02:34:48;;;;;;;13.97;13.30;;;11.50;99.90;;;;;;4972254;28;20455;-78
2021/10/06 02:37:15;;;;;;;13.67;12.87;;;11.50;99.90;;;;;;4971895;28;20448;-78
2021/10/06 02:39:43;;;;;;;13.30;12.60;;;11.40;99.90;;;;;;4971720;28;20498;-77
2021/10/06 02:42:09;;;;;;;12.60;12.10;;;11.30;99.90;;;;;;4971626;28;20464;-78
2021/10/06 02:44:36;;;;;;;13.60;13.00;;;11.30;99.90;;;;;;4971553;28;20960;-78
2021/10/06 02:47:04;;;;;;;13.70;13.00;;;11.20;99.90;;;;;;4972107;28;20447;-77
2021/10/06 02:49:31;;;;;;;13.70;13.10;;;11.10;99.90;;;;;;4971799;28;20455;-77
2021/10/06 02:51:58;;;;;;;13.73;13.13;;;11.10;99.90;;;;;;4971770;28;20456;-76
2021/10/06 02:54:25;;;;;;;13.60;13.03;;;11.00;99.90;;;;;;4971815;28;20808;-75
2021/10/06 02:56:53;;;;;;;14.23;13.20;;;11.00;99.90;;;;;;4971456;28;20455;-75
2021/10/06 02:59:20;;;;;;;14.10;13.50;;;11.00;99.90;;;;;;4974770;28;21035;-76
2021/10/06 03:01:46;;;;;;;14.13;13.43;;;11.00;99.90;;;;;;4975159;28;20463;-77
2021/10/06 03:04:13;;;;;;;13.40;12.70;;;11.10;99.90;;;;;;4974970;28;20459;-75
2021/10/06 03:06:40;;;;;;;13.67;13.07;;;11.10;99.90;;;;;;4974843;28;20506;-75
2021/10/06 03:09:06;;;;;;;14.13;13.53;;;11.10;99.90;;;;;;4975102;28;20447;-79
2021/10/06 03:11:34;;;;;;;14.43;13.50;;;11.10;99.90;;;;;;4975171;28;20828;-79
2021/10/06 03:14:02;;;;;;;14.13;13.53;;;11.10;99.90;;;;;;4974814;28;20458;-79
2021/10/06 03:16:29;;;;;;;13.90;13.30;;;11.10;99.90;;;;;;4974533;28;20462;-78
2021/10/06 03:18:55;;;;;;;13.57;13.07;;;11.10;99.90;;;;;;4974477;28;20861;-78
2021/10/06 03:21:22;;;;;;;13.60;12.90;;;11.10;99.90;;;;;;4974367;28;20479;-78
2021/10/06 03:23:49;;;;;;;13.87;13.30;;;11.10;99.90;;;;;;4974609;28;21044;-78
2021/10/06 03:26:16;;;;;;;13.70;13.00;;;11.10;99.90;;;;;;4974616;28;20456;-78
2021/10/06 03:28:42;;;;;;;13.37;12.77;;;11.00;99.90;;;;;;4974429;28;20452;-78
2021/10/06 03:31:10;;;;;;;13.33;12.73;;;11.00;99.90;;;;;;4974169;28;20469;-79
2021/10/06 03:33:37;;;;;;;13.17;12.70;;;11.10;99.90;;;;;;4974152;28;20457;-79
2021/10/06 03:36:04;;;;;;;12.70;12.10;;;11.10;99.90;;;;;;4974396;28;20455;-79
2021/10/06 03:38:31;;;;;;;12.97;12.53;;;11.20;99.90;;;;;;4973979;28;20578;-78
2021/10/06 03:40:58;;;;;;;13.40;12.90;;;11.20;99.90;;;;;;4973942;28;20466;-77
2021/10/06 03:43:26;;;;;;;14.00;13.10;;;11.20;99.90;;;;;;4974043;28;20953;-78
2021/10/06 03:45:53;;;;;;;14.30;13.57;;;11.20;99.90;;;;;;4973875;28;20820;-77
2021/10/06 03:48:21;;;;;;;13.13;12.63;;;11.20;99.90;;;;;;4974143;28;20447;-78
2021/10/06 03:50:47;;;;;;;13.97;13.37;;;11.20;99.90;;;;;;4973994;28;20459;-81
2021/10/06 03:53:14;;;;;;;13.67;13.07;;;11.20;99.90;;;;;;4973696;28;20949;-78
2021/10/06 03:55:41;;;;;;;13.13;12.60;;;11.20;99.90;;;;;;4973797;28;20885;-79
2021/10/06 03:58:08;;;;;;;14.23;13.50;;;11.20;99.90;;;;;;4973429;28;20450;-79
2021/10/06 04:00:35;;;;;;;13.67;13.07;;;11.20;99.90;;;;;;4973796;28;20448;-79
2021/10/06 04:03:01;;;;;;;13.57;12.97;;;11.30;99.90;;;;;;4973729;28;20808;-81
2021/10/06 04:05:29;;;;;;;14.43;13.83;;;11.20;99.90;;;;;;4973589;28;20465;-78
2021/10/06 04:07:56;;;;;;;12.83;12.23;;;11.20;99.90;;;;;;4973462;28;20461;-78
2021/10/06 04:10:24;;;;;;;12.90;12.40;;;11.30;99.90;;;;;;4973058;28;20455;-78
2021/10/06 04:12:51;;;;;;;14.03;13.10;;;11.30;99.90;;;;;;4973647;28;20467;-78
2021/10/06 04:15:18;;;;;;;13.03;12.53;;;11.30;99.90;;;;;;4973439;28;20466;-78
2021/10/06 04:17:45;;;;;;;13.57;13.07;;;11.40;99.90;;;;;;4973319;28;20846;-78
2021/10/06 04:20:12;;;;;;;12.13;11.60;;;11.40;99.90;;;;;;4973277;28;20496;-78
2021/10/06 04:22:40;;;;;;;12.50;12.10;;;11.40;99.90;;;;;;4973190;28;20479;-78
2021/10/06 04:25:08;;;;;;;13.83;12.93;;;11.40;99.90;;;;;;4973055;28;20487;-78
2021/10/06 04:27:35;;;;;;;12.87;12.37;;;11.40;99.90;;;;;;4973370;28;20456;-78
2021/10/06 04:30:03;;;;;;;13.27;12.50;;;11.40;99.90;;;;;;4973390;28;20455;-78
2021/10/06 04:32:29;;;;;;;13.77;12.87;;;11.40;99.90;;;;;;4973124;28;20498;-79
2021/10/06 04:34:56;;;;;;;12.80;12.20;;;11.50;99.90;;;;;;4973028;28;20474;-78
2021/10/06 04:37:22;;;;;;;12.20;11.60;;;11.60;99.90;;;;;;4973017;28;20466;-78
2021/10/06 04:39:50;;;;;;;13.03;12.30;;;11.60;99.90;;;;;;4973045;28;20510;-78
2021/10/06 04:42:17;;;;;;;12.40;11.77;;;11.70;99.90;;;;;;4972931;28;20456;-77
2021/10/06 04:44:44;;;;;;;11.77;11.27;;;11.70;99.90;;;;;;4972783;28;20459;-79
2021/10/06 04:47:10;;;;;;;12.40;11.80;;;11.80;99.90;;;;;;4972729;28;20452;-78
2021/10/06 04:49:37;;;;;;;13.30;12.60;;;11.70;99.90;;;;;;4975271;28;20454;-78
2021/10/06 04:52:04;;;;;;;13.87;12.97;;;11.70;99.90;;;;;;4977306;28;20462;-78
2021/10/06 04:54:31;;;;;;;13.03;12.53;;;11.70;99.90;;;;;;4977555;28;20459;-78
2021/10/06 04:56:59;;;;;;;13.03;12.53;;;11.70;99.90;;;;;;4974914;28;20455;-78
2021/10/06 04:59:25;;;;;;;12.80;12.27;;;11.70;99.90;;;;;;4974334;28;20495;-77
2021/10/06 05:01:52;;;;;;;12.93;12.23;;;11.80;99.90;;;;;;4981460;28;20464;-78
2021/10/06 05:04:19;;;;;;;13.13;12.53;;;11.70;99.90;;;;;;4973616;28;20471;-78
2021/10/06 05:06:45;;;;;;;12.23;11.60;;;11.70;99.90;;;;;;4982460;28;20466;-77
2021/10/06 05:09:12;;;;;;;12.77;12.00;;;11.70;99.90;;;;;;4992329;28;20454;-76
2021/10/06 05:11:39;;;;;;;12.90;12.30;;;11.70;99.90;;;;;;4991911;28;20458;-77
2021/10/06 05:14:07;;;;;;;12.20;11.80;;;11.80;99.90;;;;;;4992199;28;20458;-77
2021/10/06 05:16:34;;;;;;;13.27;12.13;;;11.80;99.90;;;;;;4992391;28;20948;-77
2021/10/06 05:19:00;;;;;;;13.13;12.27;;;11.80;99.90;;;;;;4992024;28;21012;-77
2021/10/06 05:21:27;;;;;;;12.90;12.20;;;11.80;99.90;;;;;;4991301;28;20843;-75
2021/10/06 05:23:54;;;;;;;12.27;11.70;;;11.80;99.90;;;;;;4991809;28;20482;-77
2021/10/06 05:26:20;;;;;;;12.33;11.73;;;11.80;99.90;;;;;;4991701;28;20451;-76
2021/10/06 05:28:51;;;;;;;12.80;12.20;;;11.80;99.90;;;;;;4991908;28;20468;-76
2021/10/06 05:31:19;;;;;;;13.90;12.83;;;11.80;99.90;;;;;;4992227;28;20462;-76
2021/10/06 05:33:45;;;;;;;12.87;12.33;;;11.80;99.90;;;;;;4991879;28;20456;-76
2021/10/06 05:36:12;;;;;;;12.80;12.20;;;11.80;99.90;;;;;;4991494;28;20549;-78
2021/10/06 05:38:38;;;;;;;12.77;12.27;;;11.90;99.90;;;;;;4992012;28;20457;-78
2021/10/06 05:41:05;;;;;;;12.80;12.07;;;11.80;99.90;;;;;;4992091;28;20454;-77
2021/10/06 05:43:32;;;;;;;13.57;12.30;;;11.90;99.90;;;;;;4991767;28;20451;-76
2021/10/06 05:45:59;;;;;;;12.47;12.07;;;11.90;99.90;;;;;;4991466;28;20461;-76
2021/10/06 05:48:27;;;;;;;12.80;12.20;;;11.80;99.90;;;;;;4991647;28;20455;-75
2021/10/06 05:50:53;;;;;;;13.13;12.50;;;11.90;99.90;;;;;;4991568;28;20462;-75
2021/10/06 05:53:20;;;;;;;12.50;12.00;;;12.00;99.90;;;;;;4991607;28;20478;-76
2021/10/06 05:55:47;;;;;;;13.10;12.50;;;12.00;99.90;;;;;;4991641;28;20453;-76
2021/10/06 05:58:14;;;;;;;13.27;12.53;;;12.10;99.90;;;;;;4991317;28;20939;-75
2021/10/06 06:00:41;;;;;;;12.43;11.83;;;12.10;99.90;;;;;;4991442;28;20486;-77
2021/10/06 06:03:09;;;;;;;12.43;12.03;;;12.00;99.90;;;;;;4991251;28;20455;-75
2021/10/06 06:05:39;;;;;;;12.60;11.90;;;12.10;99.90;;;;;;4988830;28;20488;-76
2021/10/06 06:08:06;;;;;;;12.93;12.23;;;12.00;99.90;;;;;;4984825;28;20865;-77
2021/10/06 06:10:33;;;;;;;13.00;12.50;;;12.00;99.90;;;;;;4972191;28;20964;-77
2021/10/06 06:13:00;;;;;;;12.43;11.80;;;12.10;99.90;;;;;;4972194;28;20527;-77
2021/10/06 06:15:27;;;;;;;12.80;12.20;;;12.10;99.90;;;;;;4971879;28;20510;-76
2021/10/06 06:17:53;;;;;;;13.20;12.40;;;12.10;99.90;;;;;;4971772;28;20455;-77
2021/10/06 06:20:23;;;;;;;11.37;10.87;;;12.00;99.90;;;;;;4971866;28;20491;-75
2021/10/06 06:22:52;;;;;;;12.37;11.57;;;12.00;99.90;;;;;;4971756;28;20491;-76
2021/10/06 06:25:20;;;;;;;14.17;13.60;;;12.10;99.90;;;;;;4972056;28;20506;-76
2021/10/06 06:27:47;;;;;;;15.87;14.53;;;12.00;99.90;;;;;;4971651;28;20467;-75
2021/10/06 06:30:14;;;;;;;12.33;11.77;;;12.00;99.90;;;;;;4971625;28;20949;-75
2021/10/06 06:32:42;;;;;;;13.20;12.30;;;12.10;99.90;;;;;;4973865;28;20451;-79
2021/10/06 06:35:10;;;;;;;14.87;13.73;;;12.10;99.90;;;;;;4975484;28;20451;-78
2021/10/06 06:37:37;;;;;;;13.50;12.90;;;12.00;99.90;;;;;;4981937;28;20513;-76
2021/10/06 06:40:07;;;;;;;13.30;12.70;;;11.90;99.90;;;;;;4994693;28;20494;-80
2021/10/06 06:42:34;;;;;;;13.50;12.67;;;12.00;99.90;;;;;;4994819;28;20595;-78
2021/10/06 06:45:01;;;;;;;13.80;12.87;;;12.20;99.90;;;;;;4994958;28;20449;-78
2021/10/06 06:47:28;;;;;;;15.00;13.70;;;12.30;99.90;;;;;;4994961;28;20479;-77
2021/10/06 06:49:55;;;;;;;12.80;12.20;;;12.50;99.90;;;;;;4994560;28;20466;-76
2021/10/06 06:52:22;;;;;;;13.27;12.40;;;12.70;99.90;;;;;;4994669;28;20461;-76
2021/10/06 06:54:48;;;;;;;12.23;11.53;;;13.10;99.90;;;;;;4994627;28;20462;-75
2021/10/06 06:57:17;;;;;;;13.03;12.37;;;13.40;99.90;;;;;;4994891;28;20727;-76
2021/10/06 06:59:43;;;;;;;12.60;11.37;;;13.40;99.90;;;;;;5007470;28;20477;-76
2021/10/06 07:02:12;;;;;;;13.00;12.30;;;13.50;99.90;;;;;;5014187;28;20449;-77
2021/10/06 07:04:39;;;;;;;11.70;11.20;;;13.60;99.90;;;;;;5013562;28;20489;-76
2021/10/06 07:07:06;;;;;;;12.97;12.47;;;13.50;99.90;;;;;;5001988;28;20474;-79
2021/10/06 07:09:35;;;;;;;14.67;13.60;;;13.70;99.90;;;;;;4983304;28;20817;-77
2021/10/06 07:12:03;;;;;;;13.67;12.90;;;13.90;99.90;;;;;;4974696;28;20823;-77
2021/10/06 07:14:31;;;;;;;12.77;12.13;;;13.90;99.90;;;;;;4974673;28;20459;-75
2021/10/06 07:16:57;;;;;;;11.50;10.97;;;14.00;99.90;;;;;;4974525;28;20452;-74
2021/10/06 07:19:24;;;;;;;11.60;11.10;;;14.30;99.90;;;;;;4973200;28;20489;-75
2021/10/06 07:21:51;;;;;;;12.67;11.43;;;15.00;99.90;;;;;;4974727;28;20228;-75
2021/10/06 07:24:18;;;;;;;11.90;11.40;;;14.90;99.90;;;;;;4974192;28;20506;-75
2021/10/06 07:26:45;;;;;;;14.83;11.90;;;14.90;99.90;;;;;;4974342;28;20490;-75
2021/10/06 07:29:12;;;;;;;12.27;11.67;;;14.60;99.90;;;;;;4974187;28;20455;-75
2021/10/06 07:31:40;;;;;;;11.63;10.83;;;14.60;99.90;;;;;;4974492;28;20856;-74
2021/10/06 07:34:07;;;;;;;12.00;11.10;;;14.30;99.90;;;;;;4974434;28;20451;-75
2021/10/06 07:36:34;;;;;;;12.23;11.73;;;14.00;99.90;;;;;;4974510;28;20512;-75
2021/10/06 07:39:04;;;;;;;11.53;10.77;;;14.10;99.90;;;;;;4974166;28;20467;-74
2021/10/06 07:41:31;;;;;;;11.23;10.70;;;14.00;99.90;;;;;;4982698;28;20494;-75
2021/10/06 07:43:58;;;;;;;11.03;10.50;;;14.00;99.90;;;;;;5009228;28;20481;-75
2021/10/06 07:46:25;;;;;;;11.93;11.43;;;14.30;99.90;;;;;;5013304;28;20456;-75
2021/10/06 07:48:54;;;;;;;11.73;11.23;;;14.90;99.90;;;;;;4990255;28;20483;-76
2021/10/06 07:51:21;;;;;;;11.97;11.37;;;15.10;99.90;;;;;;4990328;28;20922;-76
2021/10/06 07:53:49;;;;;;;12.10;11.50;;;15.10;99.90;;;;;;4974391;28;20452;-74
2021/10/06 07:56:15;;;;;;;12.07;11.47;;;15.20;99.90;;;;;;4978233;28;20450;-74
2021/10/06 07:58:42;;;;;;;12.17;11.37;;;15.40;99.90;;;;;;4993516;28;20466;-75
2021/10/06 08:01:09;;;;;;;11.43;10.87;;;15.50;99.90;;;;;;4993400;28;20890;-75
2021/10/06 08:03:37;;;;;;;11.67;11.17;;;15.50;99.90;;;;;;4993612;28;20813;-75
2021/10/06 08:06:05;;;;;;;11.63;11.10;;;15.40;99.90;;;;;;4978662;28;20455;-75
2021/10/06 08:08:32;;;;;;;12.10;11.60;;;15.30;99.90;;;;;;4973818;28;20452;-75
2021/10/06 08:11:00;;;;;;;11.50;11.00;;;15.10;99.90;;;;;;4974064;28;20439;-75
2021/10/06 08:13:28;;;;;;;12.07;11.37;;;15.20;99.90;;;;;;4973889;28;20455;-74
2021/10/06 08:15:55;;;;;;;11.77;11.17;;;15.30;99.90;;;;;;4973751;28;20825;-74
2021/10/06 08:18:22;;;;;;;11.60;11.00;;;15.40;99.90;;;;;;4974016;28;20844;-75
2021/10/06 08:20:48;;;;;;;11.83;11.27;;;15.70;99.90;;;;;;4973727;28;20499;-75
2021/10/06 08:23:17;;;;;;;11.27;10.70;;;16.10;99.90;;;;;;4988659;28;20478;-76
2021/10/06 08:25:45;;;;;;;12.70;11.70;;;16.10;99.90;;;;;;4993023;28;20550;-75
2021/10/06 08:28:12;;;;;;;12.60;11.90;;;16.10;99.90;;;;;;4992885;28;20459;-75
2021/10/06 08:30:39;;;;;;;12.30;11.73;;;16.40;99.90;;;;;;4992697;28;20455;-76
2021/10/06 08:33:06;;;;;;;11.60;11.10;;;16.60;99.90;;;;;;4992915;28;20558;-75
2021/10/06 08:35:33;;;;;;;12.80;11.80;;;16.70;99.90;;;;;;4992724;28;20485;-75
2021/10/06 08:37:59;;;;;;;12.30;11.67;;;17.30;99.90;;;;;;4993021;28;20478;-76
2021/10/06 08:40:28;;;;;;;12.03;11.43;;;17.50;99.90;;;;;;4992675;28;20903;-75
2021/10/06 08:42:54;;;;;;;11.50;11.00;;;17.40;99.90;;;;;;4992435;28;20955;-75
2021/10/06 08:45:21;;;;;;;11.83;11.13;;;17.00;99.90;;;;;;4992526;28;20451;-76
2021/10/06 08:47:48;;;;;;;11.77;11.17;;;16.70;99.90;;;;;;4992868;28;20558;-76
2021/10/06 08:50:17;;;;;;;12.70;11.70;;;16.30;99.90;;;;;;4992830;28;20807;-76
2021/10/06 08:52:46;;;;;;;12.23;11.73;;;15.90;99.90;;;;;;4985023;28;20895;-76
2021/10/06 08:55:13;;;;;;;13.63;12.47;;;15.80;99.90;;;;;;4991331;28;20450;-76
2021/10/06 08:57:41;;;;;;;12.23;11.73;;;15.60;99.90;;;;;;4974400;28;20942;-77
2021/10/06 09:00:09;;;;;;;13.03;12.43;;;15.60;99.90;;;;;;4994434;28;20485;-74
2021/10/06 09:02:38;;;;;;;12.50;11.90;;;15.40;99.90;;;;;;4997312;28;20443;-74
2021/10/06 09:05:05;;;;;;;12.17;11.57;;;15.40;99.90;;;;;;4990449;28;20459;-74
2021/10/06 09:07:32;;;;;;;12.40;11.80;;;15.30;99.90;;;;;;4991589;28;20455;-75
2021/10/06 09:10:14;;;;;;;13.17;12.43;;;15.00;99.90;;;;;;4991503;28;20804;-79
2021/10/06 09:12:53;;;;;;;14.30;13.50;;;14.70;99.90;;;;;;4991307;28;20478;-79
2021/10/06 09:15:20;;;;;;;14.43;13.83;;;14.40;99.90;;;;;;4991633;28;20458;-78
2021/10/06 09:17:52;;;;;;;14.10;13.40;;;14.30;99.90;;;;;;4991408;28;20459;-80
2021/10/06 09:20:19;;;;;;;12.90;12.20;;;14.30;99.90;;;;;;4991305;28;20526;-79
2021/10/06 09:23:00;;;;;;;13.13;12.50;;;14.60;99.90;;;;;;4991030;28;20478;-77
2021/10/06 09:25:36;;;;;;;12.43;11.70;;;14.90;99.90;;;;;;4991241;28;20489;-76
2021/10/06 09:28:06;;;;;;;11.90;11.30;;;15.30;99.90;;;;;;4980235;28;20467;-75
2021/10/06 09:30:34;;;;;;;11.47;10.77;;;15.70;99.90;;;;;;4972039;28;20483;-76
2021/10/06 09:33:03;;;;;;;11.60;11.00;;;15.90;99.90;;;;;;4971979;28;20455;-77
2021/10/06 09:35:31;;;;;;;12.10;11.60;;;16.20;99.90;;;;;;4972015;28;20550;-75
2021/10/06 09:37:59;;;;;;;12.13;11.63;;;16.40;99.90;;;;;;4971627;28;20852;-76
2021/10/06 09:40:28;;;;;;;12.53;11.90;;;17.00;99.90;;;;;;4973404;28;20557;-75
2021/10/06 09:42:56;;;;;;;12.30;11.50;;;17.90;99.90;;;;;;4973642;28;20463;-75
2021/10/06 09:45:28;;;;;;;11.67;11.07;;;17.90;99.90;;;;;;4973808;28;20484;-75
2021/10/06 09:48:06;;;;;;;11.60;11.00;;;17.70;99.90;;;;;;4972224;28;20456;-75
2021/10/06 09:50:35;;;;;;;11.20;10.60;;;18.30;99.90;;;;;;4988239;28;20788;-75
2021/10/06 09:53:09;;;;;;;12.63;11.50;;;18.60;99.20;;;;;;4991271;28;20458;-75
2021/10/06 09:55:37;;;;;;;12.30;11.40;;;18.90;98.90;;;;;;4989835;28;20446;-76
2021/10/06 09:58:05;;;;;;;11.20;10.70;;;19.10;97.50;;;;;;4971843;28;20961;-75
2021/10/06 10:00:33;;;;;;;12.43;11.77;;;19.60;96.80;;;;;;4971807;28;20490;-75
2021/10/06 10:03:00;;;;;;;11.50;11.00;;;21.00;96.00;;;;;;4971418;28;20466;-75
2021/10/06 10:05:26;;;;;;;10.90;10.60;;;21.50;91.40;;;;;;4971479;28;20717;-75
2021/10/06 10:07:53;;;;;;;12.13;11.60;;;20.80;92.50;;;;;;4974142;28;20478;-74
2021/10/06 10:10:21;;;;;;;12.47;11.77;;;20.40;92.80;;;;;;4975346;28;20871;-78
2021/10/06 10:12:49;;;;;;;12.57;12.07;;;20.00;94.30;;;;;;4975537;28;20852;-80
2021/10/06 10:15:19;;;;;;;12.03;11.53;;;19.30;99.90;;;;;;4977316;28;20487;-75
2021/10/06 10:17:52;;;;;;;12.10;11.43;;;18.30;99.90;;;;;;4993964;28;20474;-75
2021/10/06 10:20:20;;;;;;;11.90;11.50;;;17.90;99.90;;;;;;5001369;28;20572;-78
2021/10/06 10:22:48;;;;;;;12.93;12.53;;;17.00;99.90;;;;;;5015224;28;20466;-74
2021/10/06 10:25:18;;;;;;;23.67;22.57;;;16.00;99.90;;;;;;5003943;28;20505;-74
2021/10/06 10:28:03;;;;;;;28.20;26.90;;;15.30;99.90;;;;;;4995466;28;20458;-76
2021/10/06 10:30:31;;;;;;;28.37;26.87;;;14.50;99.90;;;;;;4995830;28;20450;-79
2021/10/06 10:32:59;;;;;;;27.50;26.30;;;14.20;99.90;;;;;;4996372;28;20438;-80
2021/10/06 10:35:38;;;;;;;25.70;24.57;;;14.10;99.90;;;;;;4995908;28;20936;-79
2021/10/06 10:38:11;;;;;;;23.97;22.87;;;14.20;99.90;;;;;;4995664;28;20815;-77
2021/10/06 10:40:42;;;;;;;19.20;18.50;;;14.80;99.90;;;;;;4995598;28;20489;-76
2021/10/06 10:43:10;;;;;;;17.03;16.23;;;16.40;99.90;;;;;;4995398;28;20918;-76
2021/10/06 10:45:42;;;;;;;15.40;14.80;;;18.30;99.90;;;;;;4995416;28;20454;-75
2021/10/06 10:48:13;;;;;;;14.83;14.33;;;19.50;99.90;;;;;;4995392;28;20462;-76
2021/10/06 10:50:56;;;;;;;14.67;13.97;;;20.20;99.90;;;;;;4999884;28;20453;-75
2021/10/06 10:53:56;;;;;;;14.30;13.70;;;21.20;99.90;;;;;;5005997;28;20469;-76
2021/10/06 10:56:25;;;;;;;14.27;13.67;;;22.70;94.60;;;;;;4997595;28;20949;-76
2021/10/06 10:59:05;;;;;;;13.90;13.10;;;24.00;92.00;;;;;;5005412;28;20456;-77
2021/10/06 11:01:44;;;;;;;13.93;13.33;;;23.80;91.10;;;;;;4998275;28;20495;-78
2021/10/06 11:04:19;;;;;;;17.67;16.87;;;22.50;92.80;;;;;;4990385;28;20459;-76
2021/10/06 11:06:48;;;;;;;28.63;27.43;;;20.10;96.20;;;;;;4997650;28;20453;-77
2021/10/06 11:09:36;;;;;;;28.13;27.03;;;17.50;99.90;;;;;;4997414;28;20450;-79
2021/10/06 11:12:28;;;;;;;30.00;28.90;;;16.10;99.90;;;;;;4996051;28;20453;-75
2021/10/06 11:15:27;;;;;;;28.73;27.53;;;15.30;99.90;;;;;;4995616;28;20455;-75
2021/10/06 11:18:16;;;;;;;27.80;26.60;;;15.30;99.90;;;;;;4994317;28;20469;-74
2021/10/06 11:21:01;;;;;;;24.20;23.10;;;15.50;99.90;;;;;;4994920;28;20486;-74
2021/10/06 11:23:57;;;;;;;22.00;21.10;;;15.70;99.90;;;;;;4991325;28;20502;-74
2021/10/06 11:26:33;;;;;;;17.80;17.00;;;16.10;99.90;;;;;;4994787;28;20453;-74
2021/10/06 11:29:06;;;;;;;14.57;14.00;;;16.80;99.90;;;;;;4994732;28;20955;-74
2021/10/06 11:31:35;;;;;;;14.33;13.83;;;17.70;99.90;;;;;;4994803;28;20490;-74
2021/10/06 11:34:04;;;;;;;13.67;13.03;;;18.10;99.90;;;;;;4994580;28;20455;-74
2021/10/06 11:36:34;;;;;;;14.07;13.40;;;18.30;99.90;;;;;;4994317;28;20458;-74
2021/10/06 11:39:08;;;;;;;13.60;13.00;;;19.40;99.90;;;;;;4994487;28;20823;-73
2021/10/06 11:41:37;;;;;;;14.30;13.37;;;21.10;99.90;;;;;;4998595;28;20517;-74
2021/10/06 11:44:04;;;;;;;13.83;13.27;;;22.40;99.90;;;;;;4996805;28;20450;-74
2021/10/06 11:46:33;;;;;;;14.60;13.60;;;24.20;95.60;;;;;;5013978;28;20450;-74
2021/10/06 11:49:01;;;;;;;14.13;13.63;;;25.50;91.60;;;;;;5012085;28;20458;-75
2021/10/06 11:51:49;;;;;;;13.53;12.93;;;25.90;90.60;;;;;;4994293;28;20446;-76
2021/10/06 11:54:17;;;;;;;13.60;13.10;;;25.30;89.80;;;;;;4994436;28;20531;-77
2021/10/06 11:56:44;;;;;;;12.93;12.50;;;25.00;91.00;;;;;;4994309;28;20474;-76
2021/10/06 11:59:14;;;;;;;13.47;12.90;;;24.70;84.90;;;;;;4994228;28;20801;-76
2021/10/06 12:01:51;;;;;;;13.37;12.77;;;24.60;84.00;;;;;;4990826;28;20493;-74
2021/10/06 12:04:21;;;;;;;13.10;12.47;;;25.00;85.50;;;;;;4989244;28;20966;-76
2021/10/06 12:06:55;;;;;;;13.50;13.00;;;25.10;82.50;;;;;;4993941;28;20463;-75
2021/10/06 12:10:34;;;;;;;14.13;13.63;;;26.20;81.30;;;;;;4993903;28;20494;-75
2021/10/06 12:13:01;;;;;;;14.13;13.60;;;28.20;75.60;;;;;;4952981;28;20490;-73
2021/10/06 12:15:27;;;;;;;14.20;13.73;;;30.00;64.90;;;;;;4993410;28;20956;-73
2021/10/06 12:17:54;;;;;;;14.40;13.73;;;28.80;64.40;;;;;;4993382;28;20517;-73
2021/10/06 12:20:23;;;;;;;13.30;12.90;;;27.90;67.20;;;;;;4993489;28;20454;-75
2021/10/06 12:22:57;;;;;;;13.20;12.60;;;25.80;69.00;;;;;;4993488;28;20502;-74
2021/10/06 12:25:25;;;;;;;12.97;12.57;;;23.70;75.40;;;;;;4993440;28;20802;-75
2021/10/06 12:27:54;;;;;;;12.77;12.27;;;22.20;78.60;;;;;;4993367;28;20457;-74
2021/10/06 12:30:22;;;;;;;13.27;12.70;;;20.60;86.30;;;;;;4993125;28;20451;-75
2021/10/06 12:32:51;;;;;;;15.70;15.03;;;19.40;90.90;;;;;;4993345;28;20858;-76
2021/10/06 12:35:20;;;;;;;18.13;17.27;;;18.30;96.90;;;;;;4993491;28;20442;-76
2021/10/06 12:37:48;;;;;;;24.63;23.37;;;17.00;99.90;;;;;;4993571;28;20451;-77
2021/10/06 12:43:14;;;;;;;31.60;30.20;;;16.00;99.90;;;;;;5089202;28;20513;-80
2021/10/06 12:46:05;;;;;;;33.53;32.10;;;14.40;99.90;;;;;;5089405;28;20461;-82
2021/10/06 12:48:36;;;;;;;31.17;29.97;;;14.30;99.90;;;;;;5078809;28;20466;-82
2021/10/06 12:51:03;;;;;;;26.37;25.33;;;14.40;99.90;;;;;;5089290;28;20453;-79
2021/10/06 12:53:30;;;;;;;18.03;17.43;;;15.60;99.90;;;;;;5089074;28;20845;-79
2021/10/06 12:55:56;;;;;;;15.67;15.10;;;17.00;99.90;;;;;;5089108;28;20465;-78
2021/10/06 12:58:24;;;;;;;14.37;13.63;;;18.30;99.90;;;;;;5088853;28;20451;-78
2021/10/06 13:00:52;;;;;;;15.20;14.50;;;19.30;99.90;;;;;;5088871;28;20824;-77
2021/10/06 13:03:19;;;;;;;14.00;13.50;;;20.30;97.10;;;;;;5088924;28;20454;-77
2021/10/06 13:05:45;;;;;;;13.93;13.43;;;20.90;96.30;;;;;;5088479;28;20446;-75
2021/10/06 13:08:13;;;;;;;14.83;13.70;;;21.20;95.20;;;;;;5088765;28;20580;-75
2021/10/06 13:10:40;;;;;;;13.33;12.60;;;21.40;92.50;;;;;;5088552;28;20852;-74
2021/10/06 13:13:07;;;;;;;12.87;12.17;;;21.10;92.40;;;;;;5088477;28;20451;-74
2021/10/06 13:15:35;;;;;;;12.70;12.20;;;20.20;94.60;;;;;;5088390;28;20458;-75
2021/10/06 13:18:02;;;;;;;12.60;12.10;;;20.80;95.30;;;;;;5088242;28;20464;-75
2021/10/06 13:20:29;;;;;;;12.87;12.30;;;20.70;94.30;;;;;;5088488;28;20450;-75
2021/10/06 13:22:56;;;;;;;13.20;12.60;;;19.90;94.30;;;;;;5088027;28;20827;-77
2021/10/06 13:25:23;;;;;;;12.83;12.00;;;19.30;95.30;;;;;;5088188;28;20455;-76
2021/10/06 13:27:50;;;;;;;12.70;12.20;;;19.60;96.10;;;;;;5088303;28;20960;-75
2021/10/06 13:30:16;;;;;;;12.30;11.70;;;19.20;96.00;;;;;;5083293;28;20471;-75
2021/10/06 13:32:44;;;;;;;12.00;11.47;;;18.20;95.70;;;;;;5076601;28;20428;-75
2021/10/06 13:35:11;;;;;;;13.47;12.63;;;17.60;99.90;;;;;;5078968;28;20443;-77
2021/10/06 13:37:38;;;;;;;12.47;11.97;;;17.30;99.90;;;;;;5087910;28;20446;-75
2021/10/06 13:40:06;;;;;;;12.10;11.60;;;16.80;99.90;;;;;;5071439;28;20451;-75
2021/10/06 13:42:32;;;;;;;11.43;11.03;;;16.30;99.90;;;;;;5067429;28;20483;-75
2021/10/06 13:44:59;;;;;;;11.10;10.70;;;16.10;99.90;;;;;;5067434;28;20453;-75
2021/10/06 13:47:26;;;;;;;11.00;10.40;;;16.10;99.90;;;;;;5074109;28;20442;-76
2021/10/06 13:49:54;;;;;;;11.10;10.70;;;16.10;99.90;;;;;;5087714;28;20457;-75
2021/10/06 13:52:21;;;;;;;10.20;9.80;;;16.20;99.90;;;;;;5086687;28;20864;-75
2021/10/06 13:54:48;;;;;;;10.63;10.23;;;16.30;99.90;;;;;;5073912;28;20967;-75
2021/10/06 13:57:15;;;;;;;10.73;10.23;;;16.40;99.90;;;;;;5074187;28;20458;-75
2021/10/06 13:59:42;;;;;;;10.87;10.40;;;16.60;99.90;;;;;;5074074;28;20459;-75
2021/10/06 14:02:09;;;;;;;10.90;10.23;;;17.00;99.90;;;;;;5073910;28;20478;-76
2021/10/06 14:04:36;;;;;;;10.60;10.30;;;17.30;99.70;;;;;;5066593;28;20444;-75
2021/10/06 14:07:04;;;;;;;11.23;10.83;;;17.50;98.40;;;;;;5053942;28;20448;-75
2021/10/06 14:09:31;;;;;;;11.63;11.10;;;17.70;99.00;;;;;;5054134;28;20452;-73
2021/10/06 14:11:57;;;;;;;12.70;11.90;;;17.70;99.10;;;;;;5053771;28;20452;-74
2021/10/06 14:14:24;;;;;;;11.50;11.00;;;17.70;98.40;;;;;;5053247;28;20451;-73
2021/10/06 14:16:51;;;;;;;11.20;10.77;;;17.50;98.60;;;;;;5053167;28;20476;-73
2021/10/06 14:19:17;;;;;;;11.77;11.37;;;17.40;98.70;;;;;;5059348;28;20963;-73
2021/10/06 14:21:44;;;;;;;10.67;10.20;;;17.20;99.00;;;;;;5073115;28;20921;-74
2021/10/06 14:24:12;;;;;;;10.83;10.30;;;17.30;98.60;;;;;;5072540;28;20478;-74
2021/10/06 14:26:39;;;;;;;11.50;11.03;;;17.20;98.80;;;;;;5072689;28;20458;-74
2021/10/06 14:29:05;;;;;;;10.90;10.50;;;17.10;98.80;;;;;;5072758;28;20451;-74
2021/10/06 14:31:32;;;;;;;11.40;10.90;;;16.90;99.30;;;;;;5072708;28;20456;-74
2021/10/06 14:33:59;;;;;;;12.27;11.40;;;16.70;99.20;;;;;;5073664;28;20451;-72
2021/10/06 14:36:27;;;;;;;12.30;11.80;;;16.60;99.80;;;;;;5073987;28;20454;-74
2021/10/06 14:38:54;;;;;;;11.63;11.13;;;16.30;99.90;;;;;;5074045;28;20539;-74
2021/10/06 14:41:23;;;;;;;11.30;10.70;;;16.10;99.90;;;;;;5073055;28;20471;-74
2021/10/06 14:43:49;;;;;;;11.30;10.80;;;16.00;99.90;;;;;;5072600;28;20455;-73
2021/10/06 14:46:16;;;;;;;11.80;11.30;;;16.20;99.90;;;;;;5072654;28;20447;-73
2021/10/06 14:48:43;;;;;;;11.93;11.43;;;16.20;99.90;;;;;;5072293;28;20529;-73
2021/10/06 14:51:09;;;;;;;11.60;10.90;;;16.20;99.90;;;;;;5071970;28;20455;-73
2021/10/06 14:53:36;;;;;;;11.00;10.60;;;16.30;99.90;;;;;;5072347;28;20447;-73
2021/10/06 14:56:03;;;;;;;12.00;11.30;;;16.40;99.90;;;;;;5072180;28;20456;-72
2021/10/06 14:58:31;;;;;;;11.57;11.07;;;16.30;99.90;;;;;;5072430;28;20447;-73
2021/10/06 15:00:58;;;;;;;12.00;11.40;;;16.20;99.50;;;;;;5070737;28;20976;-74